Shannock, Rhode Island
Current Conditions -  °F | °C
As of 3:26 AM on Tuesday 27 Jan 2015 (Local Time) from KWST Reporting Station
Moderate Fog Moderate Fog  
Wind Chill:   Ceiling: 800
Heat Index: 19°   Visibility: 0.5mi
Dew Point: 16°   Wind: 22mph
Humidity: 88%   Direction: 350°N
Pressure: 29.52"   Gusts: 38mph
Location:  41.45°N, 71.64°W
Report Text: KWST 270826Z AUTO 35019G33KT 1/2SM FZFG VV008 M07/M09 A2952 RMK AO2 PK WND 36035/0755 T10721089 PWINO FZRANO $
Loading
Personal Weather Stations






























Interactive Weather Map New forecast layout! Learn more

10-Day Weather Forecast

Advertisements
Track Severe Weather on mobile